»·PEaware :: SWA3962 KLAS-KLAX

SWA3962 :: KLAS-KLAX

FLIGHT INFORMATION

Flight Status: Arrived
Operator:
Southwest Airlines
More flights by this operator :: More flights under this callsign
Pilot: Adam H. (10711)
Aircraft: BOEING 737-800
(B738)
More flights by this aircraft type
Origin: KLAS McCarran Intl
United States
Destination: KLAX Los Angeles Intl
United States
More flights between these airports :: More routes between these airports
Route: +BOACH8 WHIGG OTOOL ANJLL2
File this flight plan on PilotEdge
Remarks:
Altitude:
(Current/Filed)
24,000ft
Speed:
(Current/Filed)
310kts
Departed: 12-Jan-18 07:16 PM
Arrived: 12-Jan-18 07:59 PM
Distance/Time
Traveled:
205nm/0:42
Distance/Time
To Go:
Arrived

Flight Plot

Page will automatically refresh every two minutes.

Flight plan parsing failed; only flown route is shown


Map Options




Map Legend


Flown Route
Filed Route
Departure Airport
Arrival Airport
Navaid (VOR, NDB)
Fix

Horizontal Profiles

Position Reports

Time Latitude Longitude Heading Altitude Ground
Speed
12-Jan-18 18:30 36.081008 -115.147654 61 2096ft 0kts
12-Jan-18 18:31 36.081008 -115.147654 61 2096ft 0kts
12-Jan-18 18:32 36.081008 -115.147654 61 2096ft 0kts
12-Jan-18 18:33 36.081008 -115.147654 61 2096ft 0kts
12-Jan-18 18:34 36.081008 -115.147654 61 2096ft 0kts
12-Jan-18 18:35 36.081008 -115.147654 61 2096ft 0kts
12-Jan-18 18:36 36.081008 -115.147654 61 2096ft 0kts
12-Jan-18 18:44 36.081008 -115.147654 61 2096ft 0kts
12-Jan-18 18:45 36.081008 -115.147654 61 2096ft 0kts
12-Jan-18 18:46 36.081008 -115.147654 61 2096ft 0kts
12-Jan-18 18:47 36.081008 -115.147654 61 2096ft 0kts
12-Jan-18 18:48 36.081008 -115.147654 61 2096ft 0kts
12-Jan-18 18:49 36.081008 -115.147654 61 2096ft 0kts
12-Jan-18 18:50 36.081008 -115.147654 61 2096ft 0kts
12-Jan-18 18:51 36.081008 -115.147654 61 2096ft 0kts
12-Jan-18 18:52 36.081008 -115.147654 61 2096ft 0kts
12-Jan-18 18:53 36.081008 -115.147654 61 2096ft 0kts
12-Jan-18 18:54 36.081008 -115.147654 61 2096ft 0kts
12-Jan-18 18:55 36.081008 -115.147654 61 2096ft 0kts
12-Jan-18 18:56 36.081008 -115.147654 61 2096ft 0kts
12-Jan-18 18:57 36.081008 -115.147654 61 2096ft 0kts
12-Jan-18 18:58 36.081008 -115.147654 61 2096ft 0kts
12-Jan-18 18:59 36.081008 -115.147654 61 2096ft 0kts
12-Jan-18 19:00 36.081008 -115.147654 61 2096ft 0kts
12-Jan-18 19:01 36.081008 -115.147654 61 2096ft 0kts
12-Jan-18 19:02 36.081008 -115.147654 61 2096ft 0kts
12-Jan-18 19:03 36.081008 -115.147654 61 2096ft 0kts
12-Jan-18 19:04 36.081008 -115.147654 61 2096ft 0kts
12-Jan-18 19:05 36.081008 -115.147654 61 2096ft 0kts
12-Jan-18 19:06 36.081008 -115.147654 61 2096ft 0kts
12-Jan-18 19:07 36.081008 -115.147654 61 2096ft 0kts
12-Jan-18 19:08 36.081008 -115.147654 61 2096ft 0kts
12-Jan-18 19:09 36.080893 -115.147909 61 2097ft 3kts
12-Jan-18 19:10 36.080390 -115.148544 332 2101ft 1kts
12-Jan-18 19:11 36.080359 -115.148523 331 2101ft 0kts
12-Jan-18 19:12 36.080359 -115.148523 331 2101ft 0kts
12-Jan-18 19:13 36.080375 -115.148535 327 2101ft 1kts
12-Jan-18 19:14 36.078529 -115.147302 97 2102ft 15kts
12-Jan-18 19:15 36.078282 -115.140607 91 2080ft 19kts
12-Jan-18 19:16 36.078278 -115.134524 90 2063ft 16kts
12-Jan-18 19:17 36.078280 -115.129132 88 2047ft 14kts
12-Jan-18 19:18 36.078269 -115.125317 89 2039ft 9kts
12-Jan-18 19:19 36.077774 -115.121897 128 2036ft 0kts
12-Jan-18 19:20 36.077774 -115.121897 128 2036ft 0kts
12-Jan-18 19:21 36.076444 -115.122173 266 2038ft 16kts
12-Jan-18 19:22 36.077450 -115.163840 276 3040ft 182kts
12-Jan-18 19:23 36.075036 -115.225819 256 5679ft 211kts
12-Jan-18 19:24 36.025242 -115.280859 198 7478ft 304kts
12-Jan-18 19:25 35.940046 -115.312293 193 9659ft 284kts
12-Jan-18 19:26 35.862711 -115.331199 185 12146ft 292kts
12-Jan-18 19:27 35.782889 -115.330113 169 14627ft 300kts
12-Jan-18 19:28 35.700801 -115.318845 200 17097ft 297kts
12-Jan-18 19:29 35.629119 -115.361907 221 19590ft 285kts
12-Jan-18 19:30 35.567100 -115.425944 225 21416ft 298kts
12-Jan-18 19:31 35.507469 -115.498253 229 23217ft 306kts
12-Jan-18 19:32 35.444898 -115.575437 229 24042ft 345kts
12-Jan-18 19:33 35.372302 -115.666676 228 24038ft 409kts
12-Jan-18 19:34 35.290176 -115.773873 231 24020ft 440kts
12-Jan-18 19:35 35.210222 -115.886982 231 23990ft 443kts
12-Jan-18 19:36 35.129987 -116.001710 231 23990ft 444kts
12-Jan-18 19:37 35.050130 -116.116301 231 23990ft 444kts
12-Jan-18 19:38 34.970206 -116.230782 231 23990ft 444kts
12-Jan-18 19:39 34.890790 -116.344541 232 23988ft 444kts
12-Jan-18 19:40 34.811064 -116.458558 232 23986ft 444kts
12-Jan-18 19:41 34.739076 -116.537526 212 23945ft 395kts
12-Jan-18 19:42 34.627487 -116.613348 212 23960ft 398kts
12-Jan-18 19:43 34.547627 -116.667551 211 23946ft 399kts
12-Jan-18 19:44 34.440947 -116.753708 216 23918ft 396kts
12-Jan-18 19:45 34.365124 -116.816740 219 23330ft 396kts
12-Jan-18 19:46 34.266059 -116.907952 219 20869ft 389kts
12-Jan-18 19:47 34.202181 -116.979877 243 19077ft 363kts
12-Jan-18 19:48 34.151479 -117.106672 251 17652ft 362kts
12-Jan-18 19:49 34.123473 -117.198570 252 16633ft 348kts
12-Jan-18 19:50 34.094473 -117.309020 257 14317ft 346kts
12-Jan-18 19:51 34.071428 -117.417928 260 12715ft 328kts
12-Jan-18 19:52 34.055885 -117.523794 265 11798ft 306kts
12-Jan-18 19:53 34.038790 -117.625953 255 11110ft 314kts
12-Jan-18 19:54 34.020299 -117.725101 265 9674ft 302kts
12-Jan-18 19:55 34.010551 -117.824100 263 8173ft 293kts
12-Jan-18 19:56 34.001076 -117.919370 263 6674ft 284kts
12-Jan-18 19:57 33.992476 -118.005830 263 5658ft 237kts
12-Jan-18 19:58 33.985350 -118.077040 263 4026ft 219kts
12-Jan-18 19:59 33.978422 -118.145627 263 3131ft 199kts
12-Jan-18 20:00 33.971873 -118.210107 263 2641ft 197kts
12-Jan-18 20:01 33.965497 -118.272530 263 2196ft 185kts
12-Jan-18 20:02 33.959628 -118.329718 263 1331ft 164kts
12-Jan-18 20:03 33.954669 -118.377754 263 559ft 150kts
12-Jan-18 20:04 33.950230 -118.421147 262 119ft 63kts
12-Jan-18 20:05 33.948743 -118.426464 228 113ft 2kts
12-Jan-18 20:06 33.946508 -118.425495 83 111ft 21kts
12-Jan-18 20:07 33.947152 -118.419211 82 119ft 25kts

Navigation Log

Ident Type
Flight plan parsing failed, navigation log unavailable